Vers la page d'accueil de NAV CANADA Ouverture d'une nouvelle session Chercher sur le site AWWS Clause de non-reponsabilité To the equivalent English page Trucs et astuces FAQ Quoi de neuf sur le site Vers la section Prévisions et observations / NOTAM Vers le site web pour <<Déposer un plan de vol>> Publications et liens importants Mise à jour du profil d'usager Numéros de téléphone des FIC Mes données météo personnelles Données météo de route Données météo régionales Données météo locales Vers la section Prévisions et observations / NOTAM
Requête générée le 2020/07/09 à 12:13:45 UTC. L'information météorologique disponible à ce moment est affichée.

METAR/TAF

Si vous notez des différences entre le METAR/TAF codé et le METAR/TAF en langage clair, veuillez utiliser la version codée. Les bulletins LWIS ne sont pas décodés en langage clair.

MONTREAL/PIERRE-ELLIOTT-TRUDEAU INTL/QC    

METAR CYUL 091200Z 20005KT 15SM FEW020 FEW180 FEW240 25/21 A2994 RMK CF1AC1CI1 TR AC TR CI TR SLP138 DENSITY ALT 1300FT=
METAR
LIEU
CYUL - MONTREAL/PIERRE-ELLIOTT-TRUDEAU INT
DATE - HEURE
09 JUILLET 2020 - 1200 UTC
VENT
200 VRAIS @ 5  NOEUDS
VISIBILITE
15 MILLES TERR.
PORTEE VISUELLE DE PISTE
METEO
NEBULOSITE
QUELQUES NUAGES (1/8 - 2/8) 2000  PI
QUELQUES NUAGES (1/8 - 2/8) 18000  PI
QUELQUES NUAGES (1/8 - 2/8) 24000  PI
TEMP / PT DE ROSEE
25 C / 21 C
ALTIMETRE
29.94 PO HG
TEMPS RECENT
CISAILLEMENT

METAR CYUL 091100Z 15004KT 15SM FEW025 FEW180 FEW240 23/20 A2994 RMK CU1AC1CI1 TR AC TR SLP138 DENSITY ALT 1200FT=
METAR
LIEU
CYUL - MONTREAL/PIERRE-ELLIOTT-TRUDEAU INT
DATE - HEURE
09 JUILLET 2020 - 1100 UTC
VENT
150 VRAIS @ 4  NOEUDS
VISIBILITE
15 MILLES TERR.
PORTEE VISUELLE DE PISTE
METEO
NEBULOSITE
QUELQUES NUAGES (1/8 - 2/8) 2500  PI
QUELQUES NUAGES (1/8 - 2/8) 18000  PI
QUELQUES NUAGES (1/8 - 2/8) 24000  PI
TEMP / PT DE ROSEE
23 C / 20 C
ALTIMETRE
29.94 PO HG
TEMPS RECENT
CISAILLEMENT

METAR CYUL 091000Z 14004KT 15SM FEW180 FEW240 22/21 A2992 RMK AC1CI1 AC TR SLP1 DENSITY ALT 1000FT=
METAR
LIEU
CYUL - MONTREAL/PIERRE-ELLIOTT-TRUDEAU INT
DATE - HEURE
09 JUILLET 2020 - 1000 UTC
VENT
140 VRAIS @ 4  NOEUDS
VISIBILITE
15 MILLES TERR.
PORTEE VISUELLE DE PISTE
METEO
NEBULOSITE
QUELQUES NUAGES (1/8 - 2/8) 18000  PI
QUELQUES NUAGES (1/8 - 2/8) 24000  PI
TEMP / PT DE ROSEE
22 C / 21 C
ALTIMETRE
29.92 PO HG
TEMPS RECENT
CISAILLEMENT

TAF CYUL 091138Z 0912/1012 15006KT P6SM FEW070 FM091500 22010KT P6SM SCT070 TEMPO 0917/0923 P6SM VCTS SCT070CB FM100100 VRB03KT P6SM SKC RMK NXT FCST BY 091500Z=
TAF
LIEU

CYUL - MONTREAL/PIERRE-ELLIOTT-TRUDEAU INTL/QC
VALIDITE [UTC]
09 JUL - 1138 à
10 JUL - 1200
 
PERIODES
[UTC]
VENT
[DEGRES VRAIS]
VISIBILITE
[MILLES TERR.]
METEO
NEBULOSITE
[PIEDS AGL]
 
09 JUL - 1200 à
09 JUL - 1500
150 @ 6 NOEUDS
6+
---
7000 QUELQUES
 
09 JUL - 1500 à
10 JUL - 0100
220 @ 10 NOEUDS
6+
---
7000 EPARS
CHANGEMENTS TEMPORAIRES
09 JUL - 1700 à
09 JUL - 2300
 
6+
EMBRUNS DANS LE VOISINAGE
7000 EPARS AVEC CUMULONIMBUS
 
10 JUL - 0100 à
10 JUL - 1200
VARIABLE @ 3 NOEUDS
6+
---
CIEL DEGAGE
REMARQUES
LA PREVISION SUIVANTE SERA EMISE POUR 1500 UTC LE 09


Votre heure Heure UTC
Données météorologiques fournies par Environnement Canada et NAV CANADA